sensor_id;sensor_type;location;lat;lon;timestamp;pressure;altitude;pressure_sealevel;temperature;humidity
64713;BME280;51140;45.340;5.980;2023-04-02T00:01:24;98326.84;;;6.84;100.00
64713;BME280;51140;45.340;5.980;2023-04-02T00:08:57;98337.25;;;6.82;100.00
64713;BME280;51140;45.340;5.980;2023-04-02T00:11:31;98334.00;;;6.76;100.00
64713;BME280;51140;45.340;5.980;2023-04-02T00:14:00;98346.09;;;6.75;100.00
64713;BME280;51140;45.340;5.980;2023-04-02T00:16:27;98351.09;;;6.81;100.00
64713;BME280;51140;45.340;5.980;2023-04-02T00:18:54;98363.78;;;6.89;100.00
64713;BME280;51140;45.340;5.980;2023-04-02T00:21:21;98375.03;;;6.88;100.00
64713;BME280;51140;45.340;5.980;2023-04-02T00:23:48;98375.97;;;6.85;100.00
64713;BME280;51140;45.340;5.980;2023-04-02T00:26:29;98400.81;;;6.91;100.00
64713;BME280;51140;45.340;5.980;2023-04-02T00:28:58;98414.38;;;6.99;100.00
64713;BME280;51140;45.340;5.980;2023-04-02T00:31:24;98428.38;;;6.94;100.00
64713;BME280;51140;45.340;5.980;2023-04-02T00:33:51;98422.59;;;6.85;100.00
64713;BME280;51140;45.340;5.980;2023-04-02T00:36:18;98433.31;;;6.73;100.00
64713;BME280;51140;45.340;5.980;2023-04-02T00:38:46;98448.09;;;6.70;100.00
64713;BME280;51140;45.340;5.980;2023-04-02T00:41:20;98458.34;;;6.73;100.00
64713;BME280;51140;45.340;5.980;2023-04-02T00:43:47;98466.78;;;6.79;100.00
64713;BME280;51140;45.340;5.980;2023-04-02T00:46:19;98483.84;;;6.86;100.00
64713;BME280;51140;45.340;5.980;2023-04-02T00:51:33;98511.25;;;6.94;100.00
64713;BME280;51140;45.340;5.980;2023-04-02T00:54:03;98518.00;;;6.98;100.00
64713;BME280;51140;45.340;5.980;2023-04-02T00:56:38;98523.28;;;6.95;100.00
64713;BME280;51140;45.340;5.980;2023-04-02T01:01:57;98531.81;;;6.98;100.00
64713;BME280;51140;45.340;5.980;2023-04-02T01:04:34;98537.03;;;6.97;100.00
64713;BME280;51140;45.340;5.980;2023-04-02T01:07:07;98530.47;;;6.86;100.00
64713;BME280;51140;45.340;5.980;2023-04-02T01:23:38;98535.41;;;6.94;100.00
64713;BME280;51140;45.340;5.980;2023-04-02T01:29:21;98535.78;;;6.82;100.00
64713;BME280;51140;45.340;5.980;2023-04-02T01:31:48;98535.75;;;6.54;100.00
64713;BME280;51140;45.340;5.980;2023-04-02T01:34:17;98564.84;;;6.62;100.00
64713;BME280;51140;45.340;5.980;2023-04-02T01:44:46;98614.22;;;6.54;100.00
64713;BME280;51140;45.340;5.980;2023-04-02T01:47:15;98649.38;;;6.63;100.00
64713;BME280;51140;45.340;5.980;2023-04-02T01:49:42;98663.19;;;6.62;100.00
64713;BME280;51140;45.340;5.980;2023-04-02T01:52:12;98668.63;;;6.53;100.00
64713;BME280;51140;45.340;5.980;2023-04-02T01:54:40;98681.41;;;6.59;100.00
64713;BME280;51140;45.340;5.980;2023-04-02T01:57:06;98682.22;;;6.61;100.00
64713;BME280;51140;45.340;5.980;2023-04-02T01:59:32;98696.25;;;6.52;100.00
64713;BME280;51140;45.340;5.980;2023-04-02T02:02:04;98705.13;;;6.44;100.00
64713;BME280;51140;45.340;5.980;2023-04-02T02:04:31;98715.69;;;6.35;100.00
64713;BME280;51140;45.340;5.980;2023-04-02T02:06:58;98712.44;;;6.26;100.00
64713;BME280;51140;45.340;5.980;2023-04-02T02:09:31;98719.56;;;6.18;100.00
64713;BME280;51140;45.340;5.980;2023-04-02T02:11:59;98716.31;;;6.10;100.00
64713;BME280;51140;45.340;5.980;2023-04-02T02:14:28;98721.63;;;6.04;100.00
64713;BME280;51140;45.340;5.980;2023-04-02T02:16:56;98726.06;;;5.97;100.00
64713;BME280;51140;45.340;5.980;2023-04-02T02:19:29;98735.72;;;5.91;100.00
64713;BME280;51140;45.340;5.980;2023-04-02T02:22:47;98748.72;;;5.86;100.00
64713;BME280;51140;45.340;5.980;2023-04-02T02:24:48;98759.16;;;5.83;100.00
64713;BME280;51140;45.340;5.980;2023-04-02T02:29:48;98770.59;;;5.73;100.00
64713;BME280;51140;45.340;5.980;2023-04-02T02:32:17;98783.66;;;5.67;100.00
64713;BME280;51140;45.340;5.980;2023-04-02T02:34:53;98780.25;;;5.65;100.00
64713;BME280;51140;45.340;5.980;2023-04-02T02:37:28;98791.50;;;5.62;100.00
64713;BME280;51140;45.340;5.980;2023-04-02T02:39:57;98796.72;;;5.59;100.00
64713;BME280;51140;45.340;5.980;2023-04-02T02:42:29;98812.25;;;5.58;100.00
64713;BME280;51140;45.340;5.980;2023-04-02T02:44:57;98832.88;;;5.59;100.00
64713;BME280;51140;45.340;5.980;2023-04-02T02:47:31;98851.84;;;5.61;100.00
64713;BME280;51140;45.340;5.980;2023-04-02T02:50:19;98864.78;;;5.58;100.00
64713;BME280;51140;45.340;5.980;2023-04-02T02:52:51;98889.88;;;5.53;100.00
64713;BME280;51140;45.340;5.980;2023-04-02T02:55:40;98921.78;;;5.52;100.00
64713;BME280;51140;45.340;5.980;2023-04-02T02:58:09;98946.78;;;5.50;100.00
64713;BME280;51140;45.340;5.980;2023-04-02T03:00:37;98964.97;;;5.46;100.00
64713;BME280;51140;45.340;5.980;2023-04-02T03:03:07;98984.66;;;5.51;100.00
64713;BME280;51140;45.340;5.980;2023-04-02T03:05:34;99021.69;;;5.53;100.00
64713;BME280;51140;45.340;5.980;2023-04-02T03:08:02;99044.03;;;5.56;100.00
64713;BME280;51140;45.340;5.980;2023-04-02T03:10:43;99059.59;;;5.53;100.00
64713;BME280;51140;45.340;5.980;2023-04-02T03:13:22;99087.94;;;5.57;100.00
64713;BME280;51140;45.340;5.980;2023-04-02T03:21:35;99142.91;;;5.69;100.00
64713;BME280;51140;45.340;5.980;2023-04-02T03:24:10;99149.75;;;5.73;100.00
64713;BME280;51140;45.340;5.980;2023-04-02T03:26:41;99157.38;;;5.80;100.00
64713;BME280;51140;45.340;5.980;2023-04-02T03:29:21;99168.44;;;5.88;100.00
64713;BME280;51140;45.340;5.980;2023-04-02T03:32:15;99176.94;;;5.96;100.00
64713;BME280;51140;45.340;5.980;2023-04-02T03:34:57;99185.38;;;6.09;100.00
64713;BME280;51140;45.340;5.980;2023-04-02T03:40:01;99200.69;;;6.21;100.00
64713;BME280;51140;45.340;5.980;2023-04-02T03:42:45;99204.91;;;6.73;100.00
64713;BME280;51140;45.340;5.980;2023-04-02T03:47:46;99199.56;;;6.82;100.00
64713;BME280;51140;45.340;5.980;2023-04-02T03:50:16;99189.03;;;6.90;100.00
64713;BME280;51140;45.340;5.980;2023-04-02T03:52:43;99162.44;;;6.82;100.00
64713;BME280;51140;45.340;5.980;2023-04-02T03:55:15;99132.31;;;6.76;100.00
64713;BME280;51140;45.340;5.980;2023-04-02T03:57:46;99098.72;;;6.73;100.00
64713;BME280;51140;45.340;5.980;2023-04-02T04:00:29;99063.56;;;6.63;100.00
64713;BME280;51140;45.340;5.980;2023-04-02T04:03:02;99058.59;;;6.54;100.00
64713;BME280;51140;45.340;5.980;2023-04-02T04:05:32;99044.19;;;6.42;100.00
64713;BME280;51140;45.340;5.980;2023-04-02T04:08:05;99038.16;;;6.40;100.00
64713;BME280;51140;45.340;5.980;2023-04-02T04:10:33;99026.13;;;6.38;100.00
64713;BME280;51140;45.340;5.980;2023-04-02T04:13:08;99025.41;;;6.31;100.00
64713;BME280;51140;45.340;5.980;2023-04-02T04:15:39;99015.94;;;6.30;100.00
64713;BME280;51140;45.340;5.980;2023-04-02T04:20:48;99014.91;;;6.37;100.00
64713;BME280;51140;45.340;5.980;2023-04-02T04:23:21;99023.69;;;6.30;100.00
64713;BME280;51140;45.340;5.980;2023-04-02T04:26:21;99022.88;;;6.28;100.00
64713;BME280;51140;45.340;5.980;2023-04-02T04:31:51;99042.78;;;6.24;100.00
64713;BME280;51140;45.340;5.980;2023-04-02T04:34:31;99041.13;;;6.22;100.00
64713;BME280;51140;45.340;5.980;2023-04-02T04:37:03;99035.16;;;6.18;100.00
64713;BME280;51140;45.340;5.980;2023-04-02T04:39:41;99045.69;;;6.09;100.00
64713;BME280;51140;45.340;5.980;2023-04-02T04:42:17;99050.97;;;6.05;100.00
64713;BME280;51140;45.340;5.980;2023-04-02T04:47:25;99060.41;;;6.06;100.00
64713;BME280;51140;45.340;5.980;2023-04-02T04:49:53;99070.84;;;6.00;100.00
64713;BME280;51140;45.340;5.980;2023-04-02T04:52:24;99072.72;;;5.91;100.00
64713;BME280;51140;45.340;5.980;2023-04-02T04:54:50;99081.47;;;5.83;100.00
64713;BME280;51140;45.340;5.980;2023-04-02T04:57:36;99090.22;;;5.76;100.00
64713;BME280;51140;45.340;5.980;2023-04-02T05:02:44;99099.88;;;5.66;100.00
64713;BME280;51140;45.340;5.980;2023-04-02T05:05:19;99099.88;;;-143.28;100.00
64713;BME280;51140;45.340;5.980;2023-04-02T05:07:55;99099.88;;;5.66;100.00
64713;BME280;51140;45.340;5.980;2023-04-02T05:10:45;99112.03;;;5.59;100.00
64713;BME280;51140;45.340;5.980;2023-04-02T05:16:14;99167.97;;;5.65;100.00
64713;BME280;51140;45.340;5.980;2023-04-02T05:21:55;99195.38;;;5.75;100.00
64713;BME280;51140;45.340;5.980;2023-04-02T05:24:37;99213.53;;;5.72;100.00
64713;BME280;51140;45.340;5.980;2023-04-02T05:30:14;99212.41;;;5.90;100.00
64713;BME280;51140;45.340;5.980;2023-04-02T05:33:05;99228.97;;;5.77;100.00
64713;BME280;51140;45.340;5.980;2023-04-02T05:35:43;99233.16;;;5.84;100.00
64713;BME280;51140;45.340;5.980;2023-04-02T05:38:18;99236.66;;;5.80;100.00
64713;BME280;51140;45.340;5.980;2023-04-02T05:40:47;99245.19;;;5.86;100.00
64713;BME280;51140;45.340;5.980;2023-04-02T05:43:17;99247.75;;;5.88;100.00
64713;BME280;51140;45.340;5.980;2023-04-02T05:45:51;99244.03;;;6.07;100.00
64713;BME280;51140;45.340;5.980;2023-04-02T05:48:34;99244.03;;;6.07;100.00
64713;BME280;51140;45.340;5.980;2023-04-02T05:51:02;99223.19;;;6.16;100.00
64713;BME280;51140;45.340;5.980;2023-04-02T05:53:33;99229.38;;;6.08;100.00
64713;BME280;51140;45.340;5.980;2023-04-02T05:58:42;99201.34;;;5.79;100.00
64713;BME280;51140;45.340;5.980;2023-04-02T06:01:20;99198.03;;;5.71;100.00
64713;BME280;51140;45.340;5.980;2023-04-02T06:03:50;99190.41;;;5.63;100.00
64713;BME280;51140;45.340;5.980;2023-04-02T06:06:30;99182.41;;;5.77;100.00
64713;BME280;51140;45.340;5.980;2023-04-02T06:13:51;57516.75;;;-143.28;100.00
64713;BME280;51140;45.340;5.980;2023-04-02T06:16:19;57516.75;;;-143.28;100.00
64713;BME280;51140;45.340;5.980;2023-04-02T06:18:49;99116.19;;;6.20;100.00
64713;BME280;51140;45.340;5.980;2023-04-02T06:21:16;99124.63;;;6.30;100.00
64713;BME280;51140;45.340;5.980;2023-04-02T06:23:55;99102.34;;;6.23;100.00
64713;BME280;51140;45.340;5.980;2023-04-02T06:26:31;99057.75;;;6.10;100.00
64713;BME280;51140;45.340;5.980;2023-04-02T06:29:09;99038.38;;;6.29;100.00
64713;BME280;51140;45.340;5.980;2023-04-02T06:31:49;99032.25;;;6.34;100.00
64713;BME280;51140;45.340;5.980;2023-04-02T06:34:20;99017.53;;;6.36;100.00
64713;BME280;51140;45.340;5.980;2023-04-02T06:36:47;98997.50;;;6.47;100.00
64713;BME280;51140;45.340;5.980;2023-04-02T06:39:19;98977.78;;;6.40;100.00
64713;BME280;51140;45.340;5.980;2023-04-02T06:41:57;98969.16;;;6.41;100.00
64713;BME280;51140;45.340;5.980;2023-04-02T06:44:24;98958.91;;;6.35;100.00
64713;BME280;51140;45.340;5.980;2023-04-02T06:47:06;98938.13;;;6.38;100.00
64713;BME280;51140;45.340;5.980;2023-04-02T06:49:53;98894.03;;;6.44;100.00
64713;BME280;51140;45.340;5.980;2023-04-02T06:52:32;98857.69;;;6.48;100.00
64713;BME280;51140;45.340;5.980;2023-04-02T06:54:59;98822.91;;;6.58;100.00
64713;BME280;51140;45.340;5.980;2023-04-02T06:57:29;98800.88;;;6.76;100.00
64713;BME280;51140;45.340;5.980;2023-04-02T06:59:56;98762.03;;;6.76;100.00
64713;BME280;51140;45.340;5.980;2023-04-02T07:02:25;98721.19;;;6.87;100.00
64713;BME280;51140;45.340;5.980;2023-04-02T07:04:54;98679.50;;;6.97;100.00
64713;BME280;51140;45.340;5.980;2023-04-02T07:07:22;98626.13;;;7.19;100.00
64713;BME280;51140;45.340;5.980;2023-04-02T07:09:48;98575.09;;;7.22;100.00
64713;BME280;51140;45.340;5.980;2023-04-02T07:12:13;98500.50;;;7.32;100.00
64713;BME280;51140;45.340;5.980;2023-04-02T07:14:39;98434.13;;;7.28;100.00
64713;BME280;51140;45.340;5.980;2023-04-02T07:17:04;98396.63;;;7.38;100.00
64713;BME280;51140;45.340;5.980;2023-04-02T07:19:29;98360.91;;;7.46;100.00
64713;BME280;51140;45.340;5.980;2023-04-02T07:21:55;98346.59;;;7.60;100.00
64713;BME280;51140;45.340;5.980;2023-04-02T07:24:20;98295.59;;;7.60;100.00
64713;BME280;51140;45.340;5.980;2023-04-02T07:26:46;98214.34;;;7.61;100.00
64713;BME280;51140;45.340;5.980;2023-04-02T07:29:15;98150.22;;;7.86;100.00
64713;BME280;51140;45.340;5.980;2023-04-02T07:31:42;98087.94;;;8.08;100.00
64713;BME280;51140;45.340;5.980;2023-04-02T07:34:08;98029.22;;;8.46;100.00
64713;BME280;51140;45.340;5.980;2023-04-02T07:36:33;97946.88;;;8.67;100.00
64713;BME280;51140;45.340;5.980;2023-04-02T07:39:00;97874.09;;;8.69;100.00
64713;BME280;51140;45.340;5.980;2023-04-02T07:41:26;97803.00;;;9.06;100.00
64713;BME280;51140;45.340;5.980;2023-04-02T07:43:51;97724.38;;;9.02;100.00
64713;BME280;51140;45.340;5.980;2023-04-02T07:46:17;97639.75;;;9.30;100.00
64713;BME280;51140;45.340;5.980;2023-04-02T07:48:44;97563.28;;;9.18;100.00
64713;BME280;51140;45.340;5.980;2023-04-02T07:51:21;97498.41;;;9.62;100.00
64713;BME280;51140;45.340;5.980;2023-04-02T07:53:48;97452.47;;;10.48;100.00
64713;BME280;51140;45.340;5.980;2023-04-02T07:56:20;97347.91;;;10.54;100.00
64713;BME280;51140;45.340;5.980;2023-04-02T07:58:46;97260.13;;;10.56;100.00
64713;BME280;51140;45.340;5.980;2023-04-02T08:01:23;97188.28;;;10.92;100.00
64713;BME280;51140;45.340;5.980;2023-04-02T08:03:50;97113.53;;;11.42;100.00
64713;BME280;51140;45.340;5.980;2023-04-02T08:06:16;97032.47;;;11.69;100.00
64713;BME280;51140;45.340;5.980;2023-04-02T08:08:41;96990.59;;;11.35;100.00
64713;BME280;51140;45.340;5.980;2023-04-02T08:11:08;96952.66;;;11.07;100.00
64713;BME280;51140;45.340;5.980;2023-04-02T08:13:33;96943.22;;;11.17;100.00
64713;BME280;51140;45.340;5.980;2023-04-02T08:15:59;96942.34;;;11.06;100.00
64713;BME280;51140;45.340;5.980;2023-04-02T08:18:26;96932.78;;;11.52;100.00
64713;BME280;51140;45.340;5.980;2023-04-02T08:20:51;96920.81;;;11.85;100.00
64713;BME280;51140;45.340;5.980;2023-04-02T08:23:17;96941.84;;;12.06;100.00
64713;BME280;51140;45.340;5.980;2023-04-02T08:25:44;96937.69;;;12.26;100.00
64713;BME280;51140;45.340;5.980;2023-04-02T08:28:09;96930.16;;;12.66;100.00
64713;BME280;51140;45.340;5.980;2023-04-02T08:30:35;96939.63;;;12.78;100.00
64713;BME280;51140;45.340;5.980;2023-04-02T08:33:01;96954.50;;;12.66;100.00
64713;BME280;51140;45.340;5.980;2023-04-02T08:35:26;96959.72;;;12.77;100.00
64713;BME280;51140;45.340;5.980;2023-04-02T08:37:54;96975.78;;;12.50;100.00
64713;BME280;51140;45.340;5.980;2023-04-02T08:47:53;97003.19;;;12.78;100.00
64713;BME280;51140;45.340;5.980;2023-04-02T08:52:55;97025.28;;;12.85;100.00
64713;BME280;51140;45.340;5.980;2023-04-02T08:55:50;97022.72;;;13.40;100.00
64713;BME280;51140;45.340;5.980;2023-04-02T08:58:24;97036.78;;;13.05;100.00
64713;BME280;51140;45.340;5.980;2023-04-02T09:00:54;96957.47;;;12.73;100.00
64713;BME280;51140;45.340;5.980;2023-04-02T09:03:27;96949.13;;;12.79;100.00
64713;BME280;51140;45.340;5.980;2023-04-02T09:05:54;96948.47;;;13.20;100.00
64713;BME280;51140;45.340;5.980;2023-04-02T09:08:23;96946.28;;;13.36;100.00
64713;BME280;51140;45.340;5.980;2023-04-02T09:13:26;57516.75;;;-143.28;100.00
64713;BME280;51140;45.340;5.980;2023-04-02T09:16:10;57516.75;;;-143.28;100.00
64713;BME280;51140;45.340;5.980;2023-04-02T09:18:36;57516.75;;;-143.28;100.00
64713;BME280;51140;45.340;5.980;2023-04-02T09:21:28;57516.75;;;-143.28;100.00
64713;BME280;51140;45.340;5.980;2023-04-02T09:23:56;96864.19;;;13.79;100.00
64713;BME280;51140;45.340;5.980;2023-04-02T09:26:25;96878.13;;;13.59;100.00
64713;BME280;51140;45.340;5.980;2023-04-02T09:28:58;96892.38;;;13.45;100.00
64713;BME280;51140;45.340;5.980;2023-04-02T09:31:38;96893.56;;;13.41;100.00
64713;BME280;51140;45.340;5.980;2023-04-02T09:34:33;96908.41;;;13.20;100.00
64713;BME280;51140;45.340;5.980;2023-04-02T09:39:19;96710.81;;;14.07;100.00
64713;BME280;51140;45.340;5.980;2023-04-02T09:41:45;96701.19;;;14.85;100.00
64713;BME280;51140;45.340;5.980;2023-04-02T09:44:21;96704.00;;;15.67;100.00
64713;BME280;51140;45.340;5.980;2023-04-02T09:46:55;96756.63;;;15.65;100.00
64713;BME280;51140;45.340;5.980;2023-04-02T09:49:29;96799.53;;;14.79;100.00
64713;BME280;51140;45.340;5.980;2023-04-02T09:54:32;96820.56;;;14.29;100.00
64713;BME280;51140;45.340;5.980;2023-04-02T09:57:02;96832.78;;;14.50;100.00
64713;BME280;51140;45.340;5.980;2023-04-02T09:59:28;96843.03;;;14.32;100.00
64713;BME280;51140;45.340;5.980;2023-04-02T10:04:41;96838.63;;;14.82;100.00
64713;BME280;51140;45.340;5.980;2023-04-02T10:07:29;96715.34;;;15.48;100.00
64713;BME280;51140;45.340;5.980;2023-04-02T10:10:03;96819.00;;;15.25;100.00
64713;BME280;51140;45.340;5.980;2023-04-02T10:12:40;96815.56;;;14.95;100.00
64713;BME280;51140;45.340;5.980;2023-04-02T10:15:14;96804.25;;;14.85;100.00
64713;BME280;51140;45.340;5.980;2023-04-02T10:17:41;96786.13;;;15.30;100.00
64713;BME280;51140;45.340;5.980;2023-04-02T10:20:18;96805.19;;;15.23;100.00
64713;BME280;51140;45.340;5.980;2023-04-02T10:22:45;96792.13;;;15.60;100.00
64713;BME280;51140;45.340;5.980;2023-04-02T10:25:15;96731.72;;;15.97;100.00
64713;BME280;51140;45.340;5.980;2023-04-02T10:27:56;96740.94;;;15.36;100.00
64713;BME280;51140;45.340;5.980;2023-04-02T10:33:04;96725.22;;;14.61;100.00
64713;BME280;51140;45.340;5.980;2023-04-02T10:38:30;96734.00;;;14.98;100.00
64713;BME280;51140;45.340;5.980;2023-04-02T10:49:31;96639.94;;;20.03;100.00
64713;BME280;51140;45.340;5.980;2023-04-02T10:51:59;96680.00;;;18.31;100.00
64713;BME280;51140;45.340;5.980;2023-04-02T10:54:35;96664.72;;;17.08;100.00
64713;BME280;51140;45.340;5.980;2023-04-02T10:57:18;96685.66;;;17.17;100.00
64713;BME280;51140;45.340;5.980;2023-04-02T10:59:53;96707.25;;;18.56;100.00
64713;BME280;51140;45.340;5.980;2023-04-02T11:02:29;96893.34;;;17.98;100.00
64713;BME280;51140;45.340;5.980;2023-04-02T11:04:57;96990.63;;;16.09;100.00
64713;BME280;51140;45.340;5.980;2023-04-02T11:07:27;96913.00;;;15.49;100.00
64713;BME280;51140;45.340;5.980;2023-04-02T11:09:56;96877.25;;;15.09;100.00
64713;BME280;51140;45.340;5.980;2023-04-02T11:12:25;96859.00;;;14.69;100.00
64713;BME280;51140;45.340;5.980;2023-04-02T11:14:54;96872.91;;;14.10;100.00
64713;BME280;51140;45.340;5.980;2023-04-02T11:17:22;96847.94;;;14.06;100.00
64713;BME280;51140;45.340;5.980;2023-04-02T11:19:48;96821.66;;;14.27;100.00
64713;BME280;51140;45.340;5.980;2023-04-02T11:22:24;96780.66;;;14.85;100.00
64713;BME280;51140;45.340;5.980;2023-04-02T11:24:51;96853.91;;;14.77;100.00
64713;BME280;51140;45.340;5.980;2023-04-02T11:27:30;96898.09;;;14.41;100.00
64713;BME280;51140;45.340;5.980;2023-04-02T11:32:44;96868.66;;;14.59;100.00
64713;BME280;51140;45.340;5.980;2023-04-02T11:40:42;96824.50;;;16.52;100.00
64713;BME280;51140;45.340;5.980;2023-04-02T11:48:55;96997.16;;;14.48;100.00
64713;BME280;51140;45.340;5.980;2023-04-02T11:54:22;96933.53;;;13.64;100.00
64713;BME280;51140;45.340;5.980;2023-04-02T11:56:59;96937.16;;;13.31;100.00
64713;BME280;51140;45.340;5.980;2023-04-02T11:59:38;96890.63;;;13.55;100.00
64713;BME280;51140;45.340;5.980;2023-04-02T12:05:09;96860.22;;;14.15;100.00
64713;BME280;51140;45.340;5.980;2023-04-02T12:07:48;96853.34;;;14.73;100.00
64713;BME280;51140;45.340;5.980;2023-04-02T12:12:43;96924.47;;;15.48;100.00
64713;BME280;51140;45.340;5.980;2023-04-02T12:15:44;96968.25;;;15.47;100.00
64713;BME280;51140;45.340;5.980;2023-04-02T12:18:18;96956.13;;;15.36;100.00
64713;BME280;51140;45.340;5.980;2023-04-02T12:20:51;96851.25;;;16.11;100.00
64713;BME280;51140;45.340;5.980;2023-04-02T12:23:28;96908.53;;;16.35;100.00
64713;BME280;51140;45.340;5.980;2023-04-02T12:25:57;97024.91;;;15.98;100.00
64713;BME280;51140;45.340;5.980;2023-04-02T12:28:24;97004.00;;;16.25;100.00
64713;BME280;51140;45.340;5.980;2023-04-02T12:31:04;97075.78;;;16.26;100.00
64713;BME280;51140;45.340;5.980;2023-04-02T12:33:36;97120.16;;;16.29;100.00
64713;BME280;51140;45.340;5.980;2023-04-02T12:36:16;97155.03;;;15.52;100.00
64713;BME280;51140;45.340;5.980;2023-04-02T12:39:00;97071.16;;;15.31;100.00
64713;BME280;51140;45.340;5.980;2023-04-02T12:41:30;97082.69;;;15.19;100.00
64713;BME280;51140;45.340;5.980;2023-04-02T12:44:05;97051.97;;;14.91;100.00
64713;BME280;51140;45.340;5.980;2023-04-02T12:46:33;97069.63;;;14.89;100.00
64713;BME280;51140;45.340;5.980;2023-04-02T12:49:24;97012.97;;;14.67;100.00
64713;BME280;51140;45.340;5.980;2023-04-02T12:51:55;97023.66;;;14.33;100.00
64713;BME280;51140;45.340;5.980;2023-04-02T12:54:21;96995.31;;;13.97;100.00
64713;BME280;51140;45.340;5.980;2023-04-02T12:56:47;96987.59;;;14.16;100.00
64713;BME280;51140;45.340;5.980;2023-04-02T12:59:39;97000.75;;;13.84;100.00
64713;BME280;51140;45.340;5.980;2023-04-02T13:02:20;96984.41;;;13.92;100.00
64713;BME280;51140;45.340;5.980;2023-04-02T13:04:50;97005.78;;;13.97;100.00
64713;BME280;51140;45.340;5.980;2023-04-02T13:07:19;96981.09;;;14.10;100.00
64713;BME280;51140;45.340;5.980;2023-04-02T13:09:56;96995.56;;;13.94;100.00
64713;BME280;51140;45.340;5.980;2023-04-02T13:12:34;96988.28;;;14.18;100.00
64713;BME280;51140;45.340;5.980;2023-04-02T13:15:07;96967.06;;;14.42;100.00
64713;BME280;51140;45.340;5.980;2023-04-02T13:17:44;96983.53;;;14.33;100.00
64713;BME280;51140;45.340;5.980;2023-04-02T13:22:55;96985.31;;;14.02;100.00
64713;BME280;51140;45.340;5.980;2023-04-02T13:25:27;96942.06;;;14.07;100.00
64713;BME280;51140;45.340;5.980;2023-04-02T13:27:53;96953.03;;;14.22;100.00
64713;BME280;51140;45.340;5.980;2023-04-02T13:30:24;96961.16;;;14.19;100.00
64713;BME280;51140;45.340;5.980;2023-04-02T13:32:50;96917.97;;;14.14;100.00
64713;BME280;51140;45.340;5.980;2023-04-02T13:35:15;96924.00;;;14.04;100.00
64713;BME280;51140;45.340;5.980;2023-04-02T13:37:41;96875.28;;;14.23;100.00
64713;BME280;51140;45.340;5.980;2023-04-02T13:40:11;96842.19;;;14.22;100.00
64713;BME280;51140;45.340;5.980;2023-04-02T13:42:37;96835.31;;;14.30;100.00
64713;BME280;51140;45.340;5.980;2023-04-02T13:45:04;96834.56;;;14.49;100.00
64713;BME280;51140;45.340;5.980;2023-04-02T13:47:34;96834.03;;;14.74;100.00
64713;BME280;51140;45.340;5.980;2023-04-02T13:49:59;96909.34;;;14.63;100.00
64713;BME280;51140;45.340;5.980;2023-04-02T13:52:25;96879.81;;;14.61;100.00
64713;BME280;51140;45.340;5.980;2023-04-02T13:54:53;96935.16;;;14.67;100.00
64713;BME280;51140;45.340;5.980;2023-04-02T13:57:19;96990.00;;;14.50;100.00
64713;BME280;51140;45.340;5.980;2023-04-02T13:59:45;97033.19;;;14.34;100.00
64713;BME280;51140;45.340;5.980;2023-04-02T14:02:15;97003.91;;;14.29;100.00
64713;BME280;51140;45.340;5.980;2023-04-02T14:04:44;96969.38;;;14.15;100.00
64713;BME280;51140;45.340;5.980;2023-04-02T14:10:31;96893.84;;;14.10;100.00
64713;BME280;51140;45.340;5.980;2023-04-02T14:15:41;96882.16;;;13.42;100.00
64713;BME280;51140;45.340;5.980;2023-04-02T14:21:00;96829.53;;;13.87;100.00
64713;BME280;51140;45.340;5.980;2023-04-02T14:23:43;96797.03;;;13.99;100.00
64713;BME280;51140;45.340;5.980;2023-04-02T14:29:31;96864.91;;;13.60;100.00
64713;BME280;51140;45.340;5.980;2023-04-02T14:50:57;96889.84;;;12.36;100.00
64713;BME280;51140;45.340;5.980;2023-04-02T14:53:31;96857.19;;;12.53;100.00
64713;BME280;51140;45.340;5.980;2023-04-02T14:56:03;96872.97;;;12.40;100.00
64713;BME280;51140;45.340;5.980;2023-04-02T14:58:33;96839.06;;;12.29;100.00
64713;BME280;51140;45.340;5.980;2023-04-02T15:03:37;96846.81;;;12.63;100.00
64713;BME280;51140;45.340;5.980;2023-04-02T15:06:14;96883.59;;;12.71;100.00
64713;BME280;51140;45.340;5.980;2023-04-02T15:08:51;96881.94;;;12.81;100.00
64713;BME280;51140;45.340;5.980;2023-04-02T15:11:28;96857.19;;;12.85;100.00
64713;BME280;51140;45.340;5.980;2023-04-02T15:14:10;96961.31;;;12.46;100.00
64713;BME280;51140;45.340;5.980;2023-04-02T15:16:39;97060.41;;;12.26;100.00
64713;BME280;51140;45.340;5.980;2023-04-02T15:19:10;97095.16;;;12.15;100.00
64713;BME280;51140;45.340;5.980;2023-04-02T15:24:36;97101.06;;;12.06;100.00
64713;BME280;51140;45.340;5.980;2023-04-02T15:38:00;97155.19;;;11.67;100.00
64713;BME280;51140;45.340;5.980;2023-04-02T15:40:45;97216.03;;;11.55;100.00
64713;BME280;51140;45.340;5.980;2023-04-02T15:43:38;97104.19;;;11.63;100.00
64713;BME280;51140;45.340;5.980;2023-04-02T16:05:01;97085.06;;;11.39;100.00
64713;BME280;51140;45.340;5.980;2023-04-02T16:10:21;97102.94;;;11.19;100.00
64713;BME280;51140;45.340;5.980;2023-04-02T16:12:52;97083.44;;;11.25;100.00
64713;BME280;51140;45.340;5.980;2023-04-02T16:15:23;97111.75;;;11.06;100.00
64713;BME280;51140;45.340;5.980;2023-04-02T16:18:00;97109.56;;;10.99;100.00
64713;BME280;51140;45.340;5.980;2023-04-02T16:20:39;97023.19;;;11.17;100.00
64713;BME280;51140;45.340;5.980;2023-04-02T16:23:12;97013.66;;;11.05;100.00
64713;BME280;51140;45.340;5.980;2023-04-02T16:32:06;96945.84;;;10.93;100.00
64713;BME280;51140;45.340;5.980;2023-04-02T16:59:40;97013.16;;;10.38;100.00
64713;BME280;51140;45.340;5.980;2023-04-02T17:05:31;97032.81;;;10.16;100.00
64713;BME280;51140;45.340;5.980;2023-04-02T17:08:14;97019.41;;;10.10;100.00
64713;BME280;51140;45.340;5.980;2023-04-02T17:11:01;97059.38;;;10.09;100.00
64713;BME280;51140;45.340;5.980;2023-04-02T17:13:43;97020.34;;;10.09;100.00
64713;BME280;51140;45.340;5.980;2023-04-02T17:16:19;96963.50;;;10.02;100.00
64713;BME280;51140;45.340;5.980;2023-04-02T17:18:51;96923.72;;;10.00;100.00
64713;BME280;51140;45.340;5.980;2023-04-02T17:21:21;96913.31;;;10.00;100.00